createdAt,value
2018-10-07T00:00:18.496Z,16.15
2018-10-07T00:01:18.177Z,16.16
2018-10-07T00:02:18.179Z,16.2
2018-10-07T00:03:18.207Z,16.16
2018-10-07T00:04:18.173Z,16.2
2018-10-07T00:05:18.017Z,16.15
2018-10-07T00:06:18.429Z,16.15
2018-10-07T00:07:18.172Z,16.15
2018-10-07T00:08:18.438Z,16.15
2018-10-07T00:09:18.425Z,16.16
2018-10-07T00:10:18.491Z,16.17
2018-10-07T00:11:18.178Z,16.26
2018-10-07T00:12:18.422Z,16.29
2018-10-07T00:13:18.430Z,16.26
2018-10-07T00:14:18.419Z,16.26
2018-10-07T00:15:18.200Z,16.28
2018-10-07T00:16:18.155Z,16.23
2018-10-07T00:17:18.169Z,16.29
2018-10-07T00:18:18.157Z,16.26
2018-10-07T00:19:18.423Z,16.26
2018-10-07T00:20:18.469Z,16.33
2018-10-07T00:21:18.172Z,16.29
2018-10-07T00:22:18.411Z,16.24
2018-10-07T00:23:18.164Z,16.33
2018-10-07T00:24:18.170Z,16.26
2018-10-07T00:25:18.483Z,16.24
2018-10-07T00:26:18.419Z,16.28
2018-10-07T00:27:18.145Z,16.23
2018-10-07T00:28:18.405Z,16.21
2018-10-07T00:29:18.161Z,16.29
2018-10-07T00:30:18.478Z,16.26
2018-10-07T00:31:18.143Z,16.32
2018-10-07T00:32:18.155Z,16.33
2018-10-07T00:33:17.908Z,16.28
2018-10-07T00:34:17.905Z,16.32
2018-10-07T00:35:18.207Z,16.35
2018-10-07T00:36:18.146Z,16.32
2018-10-07T00:37:18.413Z,16.33
2018-10-07T00:38:18.190Z,16.33
2018-10-07T00:39:17.904Z,16.31
2018-10-07T00:40:18.461Z,16.31
2018-10-07T00:41:18.410Z,16.33
2018-10-07T00:42:19.208Z,16.38
2018-10-07T00:43:18.414Z,16.31
2018-10-07T00:44:18.400Z,16.38
2018-10-07T00:45:18.216Z,16.32
2018-10-07T00:46:18.399Z,16.35
2018-10-07T00:47:18.157Z,16.38
2018-10-07T00:48:18.136Z,16.29
2018-10-07T00:49:17.891Z,16.28
2018-10-07T00:50:18.148Z,16.29
2018-10-07T00:51:18.414Z,16.35
2018-10-07T00:52:19.207Z,16.33
2018-10-07T00:53:17.878Z,16.35
2018-10-07T00:54:17.867Z,16.32
2018-10-07T00:55:18.177Z,16.32
2018-10-07T00:56:18.124Z,16.26
2018-10-07T00:57:18.127Z,16.32
2018-10-07T00:58:18.396Z,16.35
2018-10-07T00:59:18.140Z,16.26
2018-10-07T01:00:18.187Z,16.21
2018-10-07T01:01:18.129Z,16.31
2018-10-07T01:02:17.870Z,16.28
2018-10-07T01:03:17.864Z,16.28
2018-10-07T01:04:18.458Z,16.15
2018-10-07T01:05:18.531Z,16.16
2018-10-07T01:06:18.117Z,16.16
2018-10-07T01:07:18.128Z,16.13
2018-10-07T01:08:17.870Z,16.16
2018-10-07T01:09:18.368Z,16.13
2018-10-07T01:10:18.446Z,16.13
2018-10-07T01:11:17.871Z,16.09
2018-10-07T01:12:18.108Z,16.1
2018-10-07T01:13:18.368Z,16.12
2018-10-07T01:14:17.888Z,16.09
2018-10-07T01:15:18.145Z,16.09
2018-10-07T01:16:18.379Z,16.04
2018-10-07T01:17:18.123Z,16.05
2018-10-07T01:18:18.374Z,16.02
2018-10-07T01:19:18.137Z,16.02
2018-10-07T01:20:18.451Z,16.04
2018-10-07T01:21:18.109Z,16.05
2018-10-07T01:22:18.115Z,16.04
2018-10-07T01:23:18.105Z,16.09
2018-10-07T01:24:18.106Z,16.05
2018-10-07T01:25:18.415Z,16.04
2018-10-07T01:26:18.139Z,15.98
2018-10-07T01:27:18.403Z,16.04
2018-10-07T01:28:18.108Z,16.02
2018-10-07T01:29:18.099Z,16.08
2018-10-07T01:30:18.436Z,16.05
2018-10-07T01:31:18.372Z,16.1
2018-10-07T01:32:18.303Z,16.1
2018-10-07T01:33:18.106Z,16.08
2018-10-07T01:34:18.372Z,16.15
2018-10-07T01:35:18.187Z,16.2
2018-10-07T01:36:17.848Z,16.1
2018-10-07T01:37:17.857Z,16.15
2018-10-07T01:38:18.098Z,16.2
2018-10-07T01:39:18.094Z,16.16
2018-10-07T01:40:17.902Z,16.16
2018-10-07T01:41:18.094Z,16.13
2018-10-07T01:42:18.339Z,16.13
2018-10-07T01:43:18.337Z,16.08
2018-10-07T01:44:18.109Z,16.05
2018-10-07T01:45:17.942Z,16.13
2018-10-07T01:46:18.338Z,16.08
2018-10-07T01:47:18.333Z,16.01
2018-10-07T01:48:18.097Z,15.97
2018-10-07T01:49:18.332Z,15.98
2018-10-07T01:50:18.380Z,16
2018-10-07T01:51:17.823Z,15.98
2018-10-07T01:52:18.077Z,15.95
2018-10-07T01:53:18.077Z,16.04
2018-10-07T01:54:18.072Z,15.98
2018-10-07T01:55:18.416Z,15.91
2018-10-07T01:56:18.125Z,15.98
2018-10-07T01:57:18.093Z,15.95
2018-10-07T01:58:18.343Z,15.98
2018-10-07T01:59:18.451Z,15.98
2018-10-07T02:00:18.393Z,15.9
2018-10-07T02:01:18.325Z,15.92
2018-10-07T02:02:18.076Z,15.92
2018-10-07T02:03:18.073Z,15.92
2018-10-07T02:04:18.062Z,15.95
2018-10-07T02:05:18.227Z,16
2018-10-07T02:06:18.061Z,15.97
2018-10-07T02:07:18.341Z,16
2018-10-07T02:08:18.316Z,15.97
2018-10-07T02:09:18.060Z,16.01
2018-10-07T02:10:18.408Z,16.04
2018-10-07T02:11:17.797Z,15.98
2018-10-07T02:12:18.041Z,15.97
2018-10-07T02:13:18.069Z,16.05
2018-10-07T02:14:18.057Z,16.09
2018-10-07T02:15:18.109Z,16.04
2018-10-07T02:16:18.050Z,16.04
2018-10-07T02:17:18.417Z,16.05
2018-10-07T02:18:18.045Z,16.02
2018-10-07T02:19:18.305Z,16.05
2018-10-07T02:20:18.328Z,16.04
2018-10-07T02:21:18.319Z,16
2018-10-07T02:22:18.300Z,16
2018-10-07T02:23:18.027Z,15.91
2018-10-07T02:24:18.037Z,15.95
2018-10-07T02:25:18.380Z,15.98
2018-10-07T02:26:18.341Z,15.94
2018-10-07T02:27:18.029Z,15.95
2018-10-07T02:28:18.298Z,15.94
2018-10-07T02:29:18.033Z,15.94
2018-10-07T02:30:18.112Z,16.02
2018-10-07T02:31:18.352Z,15.98
2018-10-07T02:32:18.484Z,16
2018-10-07T02:33:18.298Z,15.94
2018-10-07T02:34:18.061Z,15.97
2018-10-07T02:35:18.078Z,15.97
2018-10-07T02:36:18.025Z,15.95
2018-10-07T02:37:18.291Z,15.98
2018-10-07T02:38:18.063Z,15.92
2018-10-07T02:39:18.292Z,15.95
2018-10-07T02:40:18.080Z,15.92
2018-10-07T02:41:17.753Z,15.95
2018-10-07T02:42:18.016Z,15.94
2018-10-07T02:43:18.032Z,15.95
2018-10-07T02:44:17.784Z,15.98
2018-10-07T02:45:18.057Z,15.95
2018-10-07T02:46:18.014Z,16.01
2018-10-07T02:47:18.008Z,15.92
2018-10-07T02:48:17.764Z,16
2018-10-07T02:49:18.007Z,15.91
2018-10-07T02:50:18.031Z,15.95
2018-10-07T02:51:18.013Z,15.91
2018-10-07T02:52:18.272Z,15.92
2018-10-07T02:53:18.503Z,15.84
2018-10-07T02:54:18.014Z,15.86
2018-10-07T02:55:18.269Z,15.95
2018-10-07T02:56:18.029Z,15.82
2018-10-07T02:57:18.016Z,15.83
2018-10-07T02:58:17.996Z,15.83
2018-10-07T02:59:18.021Z,15.8
2018-10-07T03:00:18.349Z,15.8
2018-10-07T03:01:18.044Z,15.72
2018-10-07T03:02:18.241Z,15.76
2018-10-07T03:03:17.757Z,15.75
2018-10-07T03:04:17.985Z,15.75
2018-10-07T03:05:18.304Z,15.8
2018-10-07T03:06:17.977Z,15.76
2018-10-07T03:07:18.243Z,15.65
2018-10-07T03:08:18.239Z,15.77
2018-10-07T03:09:18.005Z,15.68
2018-10-07T03:10:18.326Z,15.64
2018-10-07T03:11:17.718Z,15.62
2018-10-07T03:12:17.719Z,15.64
2018-10-07T03:13:18.227Z,15.62
2018-10-07T03:14:17.738Z,15.55
2018-10-07T03:15:18.325Z,15.61
2018-10-07T03:16:17.730Z,15.64
2018-10-07T03:17:18.227Z,15.62
2018-10-07T03:18:18.036Z,15.62
2018-10-07T03:19:17.977Z,15.64
2018-10-07T03:20:18.277Z,15.54
2018-10-07T03:21:17.979Z,15.54
2018-10-07T03:22:17.975Z,15.54
2018-10-07T03:23:17.977Z,15.55
2018-10-07T03:24:17.958Z,15.58
2018-10-07T03:25:18.070Z,15.58
2018-10-07T03:26:17.956Z,15.57
2018-10-07T03:27:18.227Z,15.49
2018-10-07T03:28:18.240Z,15.43
2018-10-07T03:29:18.297Z,15.39
2018-10-07T03:30:18.282Z,15.47
2018-10-07T03:31:18.210Z,15.42
2018-10-07T03:32:17.969Z,15.37
2018-10-07T03:33:17.976Z,15.35
2018-10-07T03:34:18.232Z,15.35
2018-10-07T03:35:17.763Z,15.28
2018-10-07T03:36:17.954Z,15.28
2018-10-07T03:37:18.220Z,15.28
2018-10-07T03:38:18.199Z,15.27
2018-10-07T03:39:17.935Z,15.35
2018-10-07T03:40:18.249Z,15.27
2018-10-07T03:41:17.929Z,15.27
2018-10-07T03:42:17.933Z,15.25
2018-10-07T03:43:17.929Z,15.22
2018-10-07T03:44:17.931Z,15.24
2018-10-07T03:45:18.275Z,15.25
2018-10-07T03:46:18.200Z,15.24
2018-10-07T03:47:18.168Z,15.18
2018-10-07T03:48:18.189Z,15.18
2018-10-07T03:49:17.937Z,15.19
2018-10-07T03:50:17.987Z,15.19
2018-10-07T03:51:17.665Z,15.22
2018-10-07T03:52:18.189Z,15.21
2018-10-07T03:53:18.162Z,15.27
2018-10-07T03:54:18.194Z,15.24
2018-10-07T03:55:18.229Z,15.21
2018-10-07T03:56:17.907Z,15.22
2018-10-07T03:57:17.935Z,15.09
2018-10-07T03:58:17.922Z,15.19
2018-10-07T03:59:18.176Z,15.14
2018-10-07T04:00:17.961Z,15.19
2018-10-07T04:01:18.168Z,15.04
2018-10-07T04:02:18.160Z,15.03
2018-10-07T04:03:17.912Z,15.04
2018-10-07T04:04:18.156Z,15
2018-10-07T04:05:18.218Z,15.15
2018-10-07T04:06:17.664Z,15.02
2018-10-07T04:07:18.162Z,14.97
2018-10-07T04:08:18.167Z,15.02
2018-10-07T04:09:17.886Z,14.92
2018-10-07T04:10:17.921Z,14.92
2018-10-07T04:11:18.162Z,14.88
2018-10-07T04:12:17.902Z,14.96
2018-10-07T04:13:17.874Z,14.86
2018-10-07T04:14:17.890Z,14.82
2018-10-07T04:15:17.888Z,14.82
2018-10-07T04:16:17.868Z,14.78
2018-10-07T04:17:18.130Z,14.65
2018-10-07T04:18:17.904Z,14.65
2018-10-07T04:19:17.899Z,14.66
2018-10-07T04:20:18.148Z,14.59
2018-10-07T04:21:18.146Z,14.54
2018-10-07T04:22:17.898Z,14.62
2018-10-07T04:23:17.861Z,14.6
2018-10-07T04:24:18.150Z,14.6
2018-10-07T04:25:17.621Z,14.55
2018-10-07T04:26:18.111Z,14.62
2018-10-07T04:27:18.126Z,14.55
2018-10-07T04:28:17.608Z,14.6
2018-10-07T04:29:17.903Z,14.54
2018-10-07T04:30:18.144Z,14.58
2018-10-07T04:31:18.119Z,14.6
2018-10-07T04:32:17.851Z,14.65
2018-10-07T04:33:17.870Z,14.63
2018-10-07T04:34:18.089Z,14.62
2018-10-07T04:35:17.866Z,14.54
2018-10-07T04:36:17.576Z,14.54
2018-10-07T04:37:17.827Z,14.62
2018-10-07T04:38:18.087Z,14.53
2018-10-07T04:39:18.073Z,14.53
2018-10-07T04:40:18.124Z,14.5
2018-10-07T04:41:18.085Z,14.51
2018-10-07T04:42:17.828Z,14.53
2018-10-07T04:43:17.570Z,14.37
2018-10-07T04:44:17.848Z,14.4
2018-10-07T04:45:18.179Z,14.36
2018-10-07T04:46:18.194Z,14.51
2018-10-07T04:47:18.102Z,14.44
2018-10-07T04:48:18.065Z,14.43
2018-10-07T04:49:17.807Z,14.48
2018-10-07T04:50:17.854Z,14.3
2018-10-07T04:51:17.824Z,14.37
2018-10-07T04:52:18.068Z,14.37
2018-10-07T04:53:18.074Z,14.32
2018-10-07T04:54:18.055Z,14.26
2018-10-07T04:55:17.535Z,14.23
2018-10-07T04:56:18.083Z,14.2
2018-10-07T04:57:18.045Z,14.26
2018-10-07T04:58:18.054Z,14.36
2018-10-07T04:59:17.778Z,14.36
2018-10-07T05:00:17.752Z,14.36
2018-10-07T05:01:18.048Z,14.35
2018-10-07T05:02:17.524Z,14.29
2018-10-07T05:03:17.775Z,14.23
2018-10-07T05:04:18.063Z,14.25
2018-10-07T05:05:17.836Z,14.28
2018-10-07T05:06:18.031Z,14.28
2018-10-07T05:07:18.030Z,14.29
2018-10-07T05:08:17.489Z,14.15
2018-10-07T05:09:18.026Z,14.2
2018-10-07T05:10:18.066Z,14.17
2018-10-07T05:11:18.016Z,14.12
2018-10-07T05:12:18.432Z,14.25
2018-10-07T05:13:17.754Z,14.12
2018-10-07T05:14:17.988Z,14.11
2018-10-07T05:15:17.804Z,14.07
2018-10-07T05:16:17.987Z,14.11
2018-10-07T05:17:17.739Z,14.1
2018-10-07T05:18:17.718Z,14.11
2018-10-07T05:19:17.729Z,14.11
2018-10-07T05:20:17.812Z,14.11
2018-10-07T05:21:17.977Z,14.12
2018-10-07T05:22:17.704Z,14.23
2018-10-07T05:23:17.465Z,14.17
2018-10-07T05:24:17.705Z,14.25
2018-10-07T05:25:17.749Z,14.22
2018-10-07T05:26:17.690Z,14.3
2018-10-07T05:27:17.702Z,14.3
2018-10-07T05:28:17.722Z,14.28
2018-10-07T05:29:17.683Z,14.25
2018-10-07T05:30:18.017Z,14.28
2018-10-07T05:31:17.693Z,14.32
2018-10-07T05:32:17.942Z,14.26
2018-10-07T05:33:17.809Z,14.18
2018-10-07T05:34:17.938Z,14.23
2018-10-07T05:35:17.744Z,14.2
2018-10-07T05:36:17.922Z,14.36
2018-10-07T05:37:17.937Z,14.32
2018-10-07T05:38:17.663Z,14.3
2018-10-07T05:39:17.660Z,14.35
2018-10-07T05:40:17.729Z,14.26
2018-10-07T05:41:17.679Z,14.36
2018-10-07T05:42:17.912Z,14.29
2018-10-07T05:43:17.920Z,14.18
2018-10-07T05:44:18.233Z,14.23
2018-10-07T05:45:17.698Z,14.3
2018-10-07T05:46:17.917Z,14.35
2018-10-07T05:47:17.387Z,14.35
2018-10-07T05:48:17.901Z,14.29
2018-10-07T05:49:17.897Z,14.33
2018-10-07T05:50:17.670Z,14.36
2018-10-07T05:51:17.897Z,14.4
2018-10-07T05:52:17.371Z,14.4
2018-10-07T05:53:17.899Z,14.41
2018-10-07T05:54:17.885Z,14.36
2018-10-07T05:55:17.937Z,14.4
2018-10-07T05:56:17.621Z,14.37
2018-10-07T05:57:17.662Z,14.37
2018-10-07T05:58:17.893Z,14.33
2018-10-07T05:59:17.373Z,14.35
2018-10-07T06:00:17.632Z,14.33
2018-10-07T06:01:17.617Z,14.36
2018-10-07T06:02:17.877Z,14.37
2018-10-07T06:03:17.613Z,14.35
2018-10-07T06:04:17.344Z,14.36
2018-10-07T06:05:17.615Z,14.35
2018-10-07T06:06:17.859Z,14.33
2018-10-07T06:07:17.865Z,14.33
2018-10-07T06:08:17.871Z,14.35
2018-10-07T06:09:17.869Z,14.43
2018-10-07T06:10:17.972Z,14.33
2018-10-07T06:11:17.595Z,14.33
2018-10-07T06:12:17.854Z,14.33
2018-10-07T06:13:17.588Z,14.36
2018-10-07T06:14:17.334Z,14.41
2018-10-07T06:15:17.910Z,14.5
2018-10-07T06:16:17.322Z,14.47
2018-10-07T06:17:17.610Z,14.44
2018-10-07T06:18:17.874Z,14.51
2018-10-07T06:19:17.834Z,14.48
2018-10-07T06:20:17.868Z,14.55
2018-10-07T06:21:17.834Z,14.48
2018-10-07T06:22:17.571Z,14.63
2018-10-07T06:23:17.576Z,14.6
2018-10-07T06:24:17.832Z,14.55
2018-10-07T06:25:17.819Z,14.62
2018-10-07T06:26:17.836Z,14.66
2018-10-07T06:27:17.300Z,14.65
2018-10-07T06:28:17.297Z,14.68
2018-10-07T06:29:17.563Z,14.85
2018-10-07T06:30:17.839Z,14.77
2018-10-07T06:31:17.297Z,14.81
2018-10-07T06:32:17.549Z,14.86
2018-10-07T06:33:17.808Z,14.91
2018-10-07T06:34:17.540Z,14.97
2018-10-07T06:35:17.296Z,14.92
2018-10-07T06:36:17.860Z,15
2018-10-07T06:37:17.282Z,15.02
2018-10-07T06:38:17.794Z,15.14
2018-10-07T06:39:17.795Z,15.09
2018-10-07T06:40:17.856Z,15.07
2018-10-07T06:41:17.879Z,15.02
2018-10-07T06:42:17.531Z,15.09
2018-10-07T06:43:17.300Z,15.07
2018-10-07T06:44:17.812Z,15.03
2018-10-07T06:45:17.636Z,15.03
2018-10-07T06:46:17.782Z,15.15
2018-10-07T06:47:17.549Z,15.11
2018-10-07T06:48:17.550Z,15.18
2018-10-07T06:49:17.518Z,15.18
2018-10-07T06:50:17.545Z,15.22
2018-10-07T06:51:17.270Z,15.22
2018-10-07T06:52:17.524Z,15.24
2018-10-07T06:53:17.816Z,15.33
2018-10-07T06:54:17.276Z,15.33
2018-10-07T06:55:17.886Z,15.28
2018-10-07T06:56:17.529Z,15.35
2018-10-07T06:57:17.370Z,15.4
2018-10-07T06:58:17.777Z,15.47
2018-10-07T06:59:17.521Z,15.44
2018-10-07T07:00:17.637Z,15.54
2018-10-07T07:01:17.502Z,15.55
2018-10-07T07:02:17.512Z,15.54
2018-10-07T07:03:17.766Z,15.58
2018-10-07T07:04:17.500Z,15.61
2018-10-07T07:05:17.801Z,15.64
2018-10-07T07:06:17.558Z,15.61
2018-10-07T07:07:17.754Z,15.73
2018-10-07T07:08:17.757Z,15.76
2018-10-07T07:09:17.767Z,15.86
2018-10-07T07:10:17.508Z,15.95
2018-10-07T07:11:17.767Z,16.16
2018-10-07T07:12:17.515Z,16.64
2018-10-07T07:13:17.276Z,17.26
2018-10-07T07:14:17.493Z,17.97
2018-10-07T07:15:17.519Z,18.66
2018-10-07T07:16:17.494Z,19.26
2018-10-07T07:17:17.247Z,20
2018-10-07T07:18:17.754Z,20.62
2018-10-07T07:19:17.770Z,21.11
2018-10-07T07:20:18.219Z,21.51
2018-10-07T07:21:17.752Z,21.85
2018-10-07T07:22:17.500Z,22.17
2018-10-07T07:23:17.247Z,22.45
2018-10-07T07:24:17.276Z,22.73
2018-10-07T07:25:17.507Z,23.02
2018-10-07T07:26:17.774Z,23.27
2018-10-07T07:27:17.513Z,23.5
2018-10-07T07:28:17.515Z,23.81
2018-10-07T07:29:17.277Z,23.76
2018-10-07T07:30:17.789Z,23.95
2018-10-07T07:31:17.926Z,23.84
2018-10-07T07:32:17.566Z,23.99
2018-10-07T07:33:17.796Z,24.03
2018-10-07T07:34:17.800Z,24.24
2018-10-07T07:35:17.295Z,24.6
2018-10-07T07:36:17.812Z,24.8
2018-10-07T07:37:17.816Z,24.85
2018-10-07T07:38:17.556Z,24.92
2018-10-07T07:39:17.833Z,25.21
2018-10-07T07:40:17.585Z,25.22
2018-10-07T07:41:17.831Z,25.23
2018-10-07T07:42:17.394Z,24.86
2018-10-07T07:43:17.581Z,24.88
2018-10-07T07:44:17.590Z,25.04
2018-10-07T07:45:17.473Z,25.16
2018-10-07T07:46:18.067Z,25.23
2018-10-07T07:47:17.597Z,25.03
2018-10-07T07:48:17.887Z,24.95
2018-10-07T07:49:17.869Z,24.91
2018-10-07T07:50:17.872Z,24.96
2018-10-07T07:51:17.883Z,24.98
2018-10-07T07:52:17.624Z,25.06
2018-10-07T07:53:17.632Z,24.95
2018-10-07T07:54:17.931Z,24.88
2018-10-07T07:55:17.682Z,24.81
2018-10-07T07:56:17.643Z,24.92
2018-10-07T07:57:17.646Z,24.81
2018-10-07T07:58:17.399Z,24.61
2018-10-07T07:59:17.935Z,24.05
2018-10-07T08:00:17.972Z,23.58
2018-10-07T08:01:17.416Z,23.15
2018-10-07T08:02:17.932Z,22.69
2018-10-07T08:03:17.437Z,22.2
2018-10-07T08:04:17.945Z,21.77
2018-10-07T08:05:17.691Z,21.42
2018-10-07T08:06:17.961Z,21.15
2018-10-07T08:07:17.711Z,20.92
2018-10-07T08:08:17.711Z,20.65
2018-10-07T08:09:17.709Z,20.47
2018-10-07T08:10:18.040Z,20.32
2018-10-07T08:11:17.999Z,20.21
2018-10-07T08:12:17.464Z,20.1
2018-10-07T08:13:17.983Z,19.84
2018-10-07T08:14:17.746Z,19.67
2018-10-07T08:15:17.743Z,19.66
2018-10-07T08:16:17.999Z,19.63
2018-10-07T08:17:18.140Z,19.48
2018-10-07T08:18:17.741Z,19.41
2018-10-07T08:19:18.015Z,19.29
2018-10-07T08:20:17.802Z,19.37
2018-10-07T08:21:17.490Z,19.33
2018-10-07T08:22:18.010Z,19.31
2018-10-07T08:23:18.125Z,19.45
2018-10-07T08:24:18.027Z,19.45
2018-10-07T08:25:17.828Z,19.31
2018-10-07T08:26:18.050Z,19.41
2018-10-07T08:27:18.020Z,19.47
2018-10-07T08:28:18.034Z,19.49
2018-10-07T08:29:17.764Z,19.55
2018-10-07T08:30:17.808Z,19.49
2018-10-07T08:31:17.781Z,19.66
2018-10-07T08:32:18.053Z,19.62
2018-10-07T08:33:17.788Z,19.63
2018-10-07T08:34:18.575Z,19.48
2018-10-07T08:35:17.993Z,19.47
2018-10-07T08:36:17.787Z,19.49
2018-10-07T08:37:17.797Z,19.52
2018-10-07T08:38:18.039Z,19.63
2018-10-07T08:39:18.059Z,19.64
2018-10-07T08:40:17.799Z,19.71
2018-10-07T08:41:18.069Z,19.7
2018-10-07T08:42:17.797Z,19.7
2018-10-07T08:43:17.799Z,19.73
2018-10-07T08:44:18.058Z,19.69
2018-10-07T08:45:17.561Z,19.81
2018-10-07T08:46:17.542Z,19.81
2018-10-07T08:47:17.559Z,19.89
2018-10-07T08:48:17.808Z,20.04
2018-10-07T08:49:18.070Z,20.06
2018-10-07T08:50:18.090Z,20.02
2018-10-07T08:51:17.821Z,20.04
2018-10-07T08:52:18.073Z,20.02
2018-10-07T08:53:18.075Z,20.04
2018-10-07T08:54:17.824Z,19.91
2018-10-07T08:55:18.101Z,19.94
2018-10-07T08:56:18.065Z,19.99
2018-10-07T08:57:18.097Z,20
2018-10-07T08:58:18.078Z,20
2018-10-07T08:59:18.084Z,20.02
2018-10-07T09:00:18.075Z,19.95
2018-10-07T09:01:18.120Z,20.02
2018-10-07T09:02:18.128Z,20
2018-10-07T09:03:17.851Z,20
2018-10-07T09:04:17.591Z,20.03
2018-10-07T09:05:17.610Z,20.06
2018-10-07T09:06:18.113Z,20.11
2018-10-07T09:07:18.092Z,20.16
2018-10-07T09:08:18.107Z,20.18
2018-10-07T09:09:18.127Z,20.07
2018-10-07T09:10:17.597Z,19.99
2018-10-07T09:11:17.601Z,20
2018-10-07T09:12:17.603Z,20
2018-10-07T09:13:17.594Z,20.04
2018-10-07T09:14:17.605Z,20.16
2018-10-07T09:15:17.635Z,20.25
2018-10-07T09:16:17.618Z,20.31
2018-10-07T09:17:17.854Z,20.37
2018-10-07T09:18:18.153Z,20.48
2018-10-07T09:19:18.151Z,20.58
2018-10-07T09:20:17.891Z,20.55
2018-10-07T09:21:17.632Z,20.5
2018-10-07T09:22:18.166Z,20.51
2018-10-07T09:23:17.884Z,20.6
2018-10-07T09:24:17.882Z,20.69
2018-10-07T09:25:17.634Z,20.77
2018-10-07T09:26:18.137Z,20.92
2018-10-07T09:27:18.135Z,21
2018-10-07T09:28:17.892Z,20.99
2018-10-07T09:29:17.893Z,21.05
2018-10-07T09:30:18.192Z,21.14
2018-10-07T09:31:17.889Z,21.22
2018-10-07T09:32:18.255Z,21.24
2018-10-07T09:33:18.142Z,21.25
2018-10-07T09:34:18.161Z,21.37
2018-10-07T09:35:18.200Z,21.36
2018-10-07T09:36:17.915Z,21.27
2018-10-07T09:37:17.893Z,21.14
2018-10-07T09:38:17.960Z,21.09
2018-10-07T09:39:18.359Z,21.05
2018-10-07T09:40:17.903Z,21
2018-10-07T09:41:17.930Z,21.11
2018-10-07T09:42:17.916Z,21.03
2018-10-07T09:43:17.942Z,20.99
2018-10-07T09:44:18.402Z,20.97
2018-10-07T09:45:17.709Z,21.02
2018-10-07T09:46:17.685Z,20.96
2018-10-07T09:47:18.121Z,20.95
2018-10-07T09:48:17.930Z,20.87
2018-10-07T09:49:18.194Z,20.87
2018-10-07T09:50:17.962Z,20.85
2018-10-07T09:51:17.919Z,20.93
2018-10-07T09:52:18.075Z,20.92
2018-10-07T09:53:18.235Z,21
2018-10-07T09:54:17.972Z,21.03
2018-10-07T09:55:18.195Z,20.99
2018-10-07T09:56:18.216Z,20.85
2018-10-07T09:57:18.025Z,20.88
2018-10-07T09:58:17.980Z,20.88
2018-10-07T09:59:17.982Z,20.9
2018-10-07T10:00:17.700Z,20.82
2018-10-07T10:01:18.112Z,20.82
2018-10-07T10:02:18.218Z,20.72
2018-10-07T10:03:18.224Z,20.75
2018-10-07T10:04:18.553Z,20.66
2018-10-07T10:05:17.968Z,20.62
2018-10-07T10:06:18.226Z,20.58
2018-10-07T10:07:17.993Z,20.58
2018-10-07T10:08:18.221Z,20.55
2018-10-07T10:09:17.740Z,20.55
2018-10-07T10:10:18.065Z,20.5
2018-10-07T10:11:18.227Z,20.43
2018-10-07T10:12:17.712Z,20.5
2018-10-07T10:13:17.964Z,20.51
2018-10-07T10:14:18.113Z,20.6
2018-10-07T10:15:18.289Z,20.69
2018-10-07T10:16:18.262Z,20.75
2018-10-07T10:17:18.253Z,20.72
2018-10-07T10:18:18.033Z,20.74
2018-10-07T10:19:18.237Z,20.72
2018-10-07T10:20:18.267Z,20.67
2018-10-07T10:21:18.228Z,20.63
2018-10-07T10:22:17.978Z,20.69
2018-10-07T10:23:17.985Z,20.66
2018-10-07T10:24:18.010Z,20.63
2018-10-07T10:25:18.305Z,20.56
2018-10-07T10:26:18.271Z,20.52
2018-10-07T10:27:18.268Z,20.56
2018-10-07T10:28:18.056Z,20.39
2018-10-07T10:29:18.091Z,20.41
2018-10-07T10:30:18.139Z,20.37
2018-10-07T10:31:18.274Z,20.37
2018-10-07T10:32:18.011Z,20.43
2018-10-07T10:33:17.999Z,20.52
2018-10-07T10:34:18.264Z,20.67
2018-10-07T10:35:18.026Z,20.65
2018-10-07T10:36:18.028Z,20.69
2018-10-07T10:37:18.257Z,20.69
2018-10-07T10:38:17.768Z,20.84
2018-10-07T10:39:18.298Z,20.92
2018-10-07T10:40:18.056Z,20.85
2018-10-07T10:41:18.291Z,20.84
2018-10-07T10:42:18.293Z,20.81
2018-10-07T10:43:18.037Z,20.84
2018-10-07T10:44:18.027Z,20.81
2018-10-07T10:45:18.056Z,20.84
2018-10-07T10:46:18.311Z,20.78
2018-10-07T10:47:18.295Z,20.84
2018-10-07T10:48:17.803Z,20.81
2018-10-07T10:49:18.043Z,20.72
2018-10-07T10:50:17.810Z,20.72
2018-10-07T10:51:18.054Z,20.72
2018-10-07T10:52:18.306Z,20.95
2018-10-07T10:53:18.047Z,20.88
2018-10-07T10:54:18.313Z,20.96
2018-10-07T10:55:18.363Z,21.02
2018-10-07T10:56:18.313Z,21.17
2018-10-07T10:57:18.333Z,21.22
2018-10-07T10:58:18.309Z,21.15
2018-10-07T10:59:18.325Z,21.11
2018-10-07T11:00:18.161Z,21.17
2018-10-07T11:01:18.159Z,21.21
2018-10-07T11:02:18.074Z,21.22
2018-10-07T11:03:18.065Z,21.32
2018-10-07T11:04:17.823Z,21.37
2018-10-07T11:05:18.535Z,21.48
2018-10-07T11:06:18.336Z,21.48
2018-10-07T11:07:18.074Z,21.48
2018-10-07T11:08:17.825Z,21.5
2018-10-07T11:09:18.304Z,21.48
2018-10-07T11:10:18.116Z,21.57
2018-10-07T11:11:18.092Z,21.62
2018-10-07T11:12:18.090Z,21.72
2018-10-07T11:13:18.101Z,21.85
2018-10-07T11:14:18.359Z,22
2018-10-07T11:15:18.502Z,22.06
2018-10-07T11:16:17.851Z,22.11
2018-10-07T11:17:18.392Z,22.2
2018-10-07T11:18:18.099Z,22.2
2018-10-07T11:19:19.232Z,22.2
2018-10-07T11:20:18.131Z,22.28
2018-10-07T11:21:18.349Z,22.35
2018-10-07T11:22:18.095Z,22.39
2018-10-07T11:23:18.124Z,22.35
2018-10-07T11:24:18.383Z,22.32
2018-10-07T11:25:18.156Z,22.29
2018-10-07T11:26:18.213Z,22.28
2018-10-07T11:27:18.133Z,22.28
2018-10-07T11:28:18.146Z,22.23
2018-10-07T11:29:18.125Z,22.25
2018-10-07T11:30:17.875Z,22.26
2018-10-07T11:31:18.408Z,22.28
2018-10-07T11:32:18.135Z,22.14
2018-10-07T11:33:18.137Z,22.28
2018-10-07T11:34:18.147Z,22.26
2018-10-07T11:35:18.142Z,22.26
2018-10-07T11:36:18.141Z,22.29
2018-10-07T11:37:18.410Z,22.25
2018-10-07T11:38:18.428Z,22.2
2018-10-07T11:39:18.157Z,22.29
2018-10-07T11:40:17.924Z,22.23
2018-10-07T11:41:18.154Z,22.32
2018-10-07T11:42:17.888Z,22.36
2018-10-07T11:43:18.423Z,22.36
2018-10-07T11:44:18.963Z,22.48
2018-10-07T11:45:18.234Z,22.41
2018-10-07T11:46:18.443Z,22.47
2018-10-07T11:47:18.177Z,22.47
2018-10-07T11:48:17.928Z,22.54
2018-10-07T11:49:17.940Z,22.63
2018-10-07T11:50:18.533Z,22.63
2018-10-07T11:51:18.461Z,22.65
2018-10-07T11:52:17.942Z,22.69
2018-10-07T11:53:18.472Z,22.78
2018-10-07T11:54:18.462Z,22.81
2018-10-07T11:55:18.527Z,22.85
2018-10-07T11:56:18.204Z,22.76
2018-10-07T11:57:17.950Z,22.85
2018-10-07T11:58:18.205Z,22.8
2018-10-07T11:59:18.219Z,22.81
2018-10-07T12:00:18.504Z,22.85
2018-10-07T12:01:18.204Z,22.8
2018-10-07T12:02:18.725Z,22.76
2018-10-07T12:03:17.991Z,22.78
2018-10-07T12:04:18.025Z,22.83
2018-10-07T12:05:18.223Z,22.84
2018-10-07T12:06:17.956Z,22.84
2018-10-07T12:07:18.215Z,22.94
2018-10-07T12:08:18.507Z,22.99
2018-10-07T12:09:18.488Z,22.98
2018-10-07T12:10:18.949Z,22.98
2018-10-07T12:11:18.231Z,22.99
2018-10-07T12:12:18.238Z,22.96
2018-10-07T12:13:18.517Z,23
2018-10-07T12:14:18.508Z,22.94
2018-10-07T12:15:18.301Z,22.84
2018-10-07T12:16:18.024Z,22.93
2018-10-07T12:17:18.257Z,23
2018-10-07T12:18:18.263Z,22.98
2018-10-07T12:19:18.507Z,22.98
2018-10-07T12:20:18.581Z,22.98
2018-10-07T12:21:18.280Z,22.98
2018-10-07T12:22:18.522Z,23.02
2018-10-07T12:23:18.054Z,23.02
2018-10-07T12:24:18.531Z,23.12
2018-10-07T12:25:18.562Z,23.15
2018-10-07T12:26:18.522Z,23.12
2018-10-07T12:27:18.531Z,23.15
2018-10-07T12:28:18.295Z,23.13
2018-10-07T12:29:18.284Z,23.06
2018-10-07T12:30:18.584Z,23.03
2018-10-07T12:31:18.546Z,22.96
2018-10-07T12:32:18.539Z,23
2018-10-07T12:33:18.552Z,22.83
2018-10-07T12:34:18.549Z,23
2018-10-07T12:35:18.043Z,22.96
2018-10-07T12:36:18.569Z,22.85
2018-10-07T12:37:18.051Z,22.84
2018-10-07T12:38:18.314Z,22.8
2018-10-07T12:39:18.053Z,22.7
2018-10-07T12:40:18.653Z,22.72
2018-10-07T12:41:18.059Z,22.72
2018-10-07T12:42:18.327Z,22.73
2018-10-07T12:43:18.368Z,22.69
2018-10-07T12:44:18.316Z,22.72
2018-10-07T12:45:18.606Z,22.81
2018-10-07T12:46:18.589Z,22.81
2018-10-07T12:47:18.579Z,22.88
2018-10-07T12:48:18.587Z,22.88
2018-10-07T12:49:18.599Z,22.88
2018-10-07T12:50:18.409Z,22.93
2018-10-07T12:51:18.609Z,22.8
2018-10-07T12:52:18.608Z,22.93
2018-10-07T12:53:18.094Z,22.91
2018-10-07T12:54:18.358Z,22.91
2018-10-07T12:55:18.105Z,22.88
2018-10-07T12:56:18.634Z,22.94